Rechercher aéroport 
image banner adimage banner adimage banner ad
image banner ad

PN32 - Indiana Rgnl Medical Center

Situé à Indiana, United States

ICAO - PN32, IATA -

Données fournies par Airmate  

Information générale

Coordonnées: N40°36'24" W79°9'22"
Élévation : 1285 feet MSL.
Variation magnétique : -09° East
Voir autres Aéroports à Pennsylvania

Données opérationnelles

Special qualification required
Heure actuelle UTC:
Heure actuelle locale:
METAR: KIDI 131915Z AUTO 18005KT 10SM CLR 28/18 A2991 RMK A01
Voir NOTAMs / SUP AIP / TFR affectant cet aéroport [VIEW]
Fréquences de communication: [VIEW]

Pistes:

Coordonnées de l'aéroport

Adresse: Indiana United States

Vue satellite de PN32